createdAt,value
2019-03-17T00:00:17.098Z,10.80
2019-03-17T00:02:45.784Z,6.53
2019-03-17T00:05:14.494Z,6.70
2019-03-17T00:07:43.069Z,8.18
2019-03-17T00:10:11.971Z,7.28
2019-03-17T00:12:40.472Z,7.72
2019-03-17T00:15:09.225Z,7.85
2019-03-17T00:17:37.917Z,8.13
2019-03-17T00:20:07.633Z,8.40
2019-03-17T00:22:36.355Z,8.20
2019-03-17T00:25:09.479Z,8.03
2019-03-17T00:27:36.397Z,8.20
2019-03-17T00:30:11.919Z,8.65
2019-03-17T00:32:40.457Z,9.65
2019-03-17T00:35:09.089Z,9.38
2019-03-17T00:37:37.726Z,10.08
2019-03-17T00:40:10.736Z,9.35
2019-03-17T00:42:39.508Z,11.90
2019-03-17T00:45:12.135Z,11.50
2019-03-17T00:47:40.751Z,10.08
2019-03-17T00:50:11.200Z,8.90
2019-03-17T00:52:39.838Z,7.90
2019-03-17T00:55:08.688Z,5.50
2019-03-17T00:57:37.329Z,4.33
2019-03-17T01:00:11.626Z,4.65
2019-03-17T01:02:40.315Z,4.20
2019-03-17T01:05:09.034Z,4.90
2019-03-17T01:07:37.672Z,5.67
2019-03-17T01:10:08.563Z,6.30
2019-03-17T01:12:37.131Z,4.17
2019-03-17T01:15:10.600Z,5.95
2019-03-17T01:17:39.303Z,6.12
2019-03-17T01:20:09.740Z,7.80
2019-03-17T01:22:38.317Z,8.40
2019-03-17T01:25:09.001Z,9.25
2019-03-17T01:27:37.647Z,6.92
2019-03-17T01:30:09.070Z,5.92
2019-03-17T01:32:38.209Z,5.25
2019-03-17T01:35:09.843Z,6.20
2019-03-17T01:37:38.386Z,5.20
2019-03-17T01:40:09.350Z,6.22
2019-03-17T01:42:37.996Z,8.75
2019-03-17T01:45:08.448Z,9.65
2019-03-17T01:47:37.263Z,9.75
2019-03-17T01:50:07.408Z,10.45
2019-03-17T01:52:36.057Z,10.30
2019-03-17T01:55:06.051Z,9.08
2019-03-17T01:57:34.699Z,9.45
2019-03-17T02:00:03.270Z,9.40
2019-03-17T02:02:31.951Z,6.15
2019-03-17T02:05:00.515Z,7.12
2019-03-17T02:07:29.094Z,7.40
2019-03-17T02:09:57.703Z,8.83
2019-03-17T02:12:26.267Z,9.93
2019-03-17T02:14:54.837Z,9.90
2019-03-17T02:17:23.522Z,11.50
2019-03-17T02:19:52.161Z,11.20
2019-03-17T02:22:22.262Z,11.00
2019-03-17T02:24:51.029Z,10.55
2019-03-17T02:27:19.676Z,9.53
2019-03-17T02:29:48.256Z,9.95
2019-03-17T02:32:16.873Z,10.43
2019-03-17T02:34:45.438Z,9.78
2019-03-17T02:37:14.067Z,6.75
2019-03-17T02:39:42.760Z,7.12
2019-03-17T02:42:11.324Z,7.12
2019-03-17T02:44:39.911Z,7.00
2019-03-17T02:47:08.511Z,6.70
2019-03-17T02:49:37.129Z,7.12
2019-03-17T02:52:05.804Z,7.50
2019-03-17T02:54:34.491Z,7.28
2019-03-17T02:57:03.128Z,9.68
2019-03-17T02:59:31.779Z,7.42
2019-03-17T03:02:00.488Z,7.58
2019-03-17T03:04:29.060Z,8.48
2019-03-17T03:06:57.567Z,10.53
2019-03-17T03:09:26.199Z,20.60
2019-03-17T03:11:54.836Z,19.57
2019-03-17T03:14:23.479Z,8.90
2019-03-17T03:16:52.099Z,8.30
2019-03-17T03:19:20.741Z,7.60
2019-03-17T03:21:49.385Z,6.15
2019-03-17T03:24:18.101Z,5.53
2019-03-17T03:26:46.646Z,6.25
2019-03-17T03:29:15.289Z,6.60
2019-03-17T03:31:43.846Z,6.05
2019-03-17T03:34:12.502Z,5.50
2019-03-17T03:36:41.141Z,5.20
2019-03-17T03:39:09.749Z,6.03
2019-03-17T03:41:38.415Z,5.33
2019-03-17T03:44:07.066Z,5.70
2019-03-17T03:46:35.741Z,6.70
2019-03-17T03:49:04.486Z,9.73
2019-03-17T03:51:33.072Z,13.20
2019-03-17T03:54:01.688Z,17.02
2019-03-17T03:56:30.334Z,17.42
2019-03-17T03:58:59.080Z,17.07
2019-03-17T04:01:27.686Z,16.73
2019-03-17T04:03:56.331Z,16.40
2019-03-17T04:06:26.678Z,16.07
2019-03-17T04:08:55.333Z,16.57
2019-03-17T04:11:23.956Z,16.10
2019-03-17T04:13:52.529Z,15.35
2019-03-17T04:16:21.149Z,15.10
2019-03-17T04:18:49.805Z,15.35
2019-03-17T04:21:18.477Z,15.78
2019-03-17T04:23:47.162Z,15.32
2019-03-17T04:26:15.813Z,14.45
2019-03-17T04:28:44.396Z,16.00
2019-03-17T04:31:14.726Z,14.73
2019-03-17T04:33:43.385Z,16.17
2019-03-17T04:36:11.891Z,16.95
2019-03-17T04:38:43.645Z,22.82
2019-03-17T04:41:11.210Z,22.90
2019-03-17T04:43:39.863Z,21.62
2019-03-17T04:46:08.549Z,19.15
2019-03-17T04:48:37.222Z,17.45
2019-03-17T04:51:05.842Z,16.97
2019-03-17T04:53:34.706Z,19.77
2019-03-17T04:56:03.345Z,18.07
2019-03-17T04:58:31.932Z,13.88
2019-03-17T05:01:00.606Z,13.20
2019-03-17T05:03:29.182Z,13.15
2019-03-17T05:05:57.852Z,13.55
2019-03-17T05:08:26.438Z,13.78
2019-03-17T05:10:55.822Z,15.35
2019-03-17T05:13:24.402Z,14.43
2019-03-17T05:15:53.134Z,16.70
2019-03-17T05:18:21.741Z,15.08
2019-03-17T05:20:50.387Z,18.23
2019-03-17T05:23:18.971Z,17.75
2019-03-17T05:25:47.599Z,18.15
2019-03-17T05:28:15.996Z,13.83
2019-03-17T05:30:44.645Z,13.58
2019-03-17T05:33:14.801Z,12.90
2019-03-17T05:35:43.380Z,12.20
2019-03-17T05:38:12.026Z,11.57
2019-03-17T05:40:40.716Z,12.85
2019-03-17T05:43:09.301Z,14.30
2019-03-17T05:45:37.818Z,14.87
2019-03-17T05:48:06.499Z,16.50
2019-03-17T05:50:35.143Z,17.85
2019-03-17T05:53:03.779Z,18.40
2019-03-17T05:55:32.804Z,19.02
2019-03-17T05:58:01.448Z,15.80
2019-03-17T06:00:30.093Z,16.67
2019-03-17T06:02:58.716Z,17.27
2019-03-17T06:05:27.277Z,18.25
2019-03-17T06:07:55.917Z,19.10
2019-03-17T06:10:24.607Z,18.55
2019-03-17T06:12:53.267Z,18.15
2019-03-17T06:15:21.815Z,16.95
2019-03-17T06:17:50.663Z,17.95
2019-03-17T06:20:19.373Z,18.52
2019-03-17T06:22:48.034Z,17.45
2019-03-17T06:25:16.721Z,16.02
2019-03-17T06:27:45.372Z,16.17
2019-03-17T06:30:14.526Z,16.97
2019-03-17T06:32:43.160Z,17.95
2019-03-17T06:35:11.837Z,17.35
2019-03-17T06:37:40.490Z,17.23
2019-03-17T06:40:14.129Z,14.68
2019-03-17T06:42:42.792Z,14.87
2019-03-17T06:45:12.070Z,15.10
2019-03-17T06:47:40.783Z,15.10
2019-03-17T06:50:15.928Z,15.38
2019-03-17T06:52:44.581Z,16.00
2019-03-17T06:55:14.891Z,14.60
2019-03-17T06:57:43.475Z,14.85
2019-03-17T07:00:13.528Z,15.35
2019-03-17T07:02:42.537Z,13.40
2019-03-17T07:05:11.254Z,13.35
2019-03-17T07:07:44.453Z,12.60
2019-03-17T07:10:11.322Z,12.80
2019-03-17T07:12:39.993Z,12.15
2019-03-17T07:15:12.284Z,12.35
2019-03-17T07:17:41.524Z,11.75
2019-03-17T07:20:14.385Z,11.90
2019-03-17T07:22:43.036Z,13.40
2019-03-17T07:25:12.022Z,13.40
2019-03-17T07:27:40.695Z,12.80
2019-03-17T07:30:12.743Z,13.85
2019-03-17T07:32:42.898Z,13.28
2019-03-17T07:35:11.482Z,13.83
2019-03-17T07:37:40.129Z,14.15
2019-03-17T07:40:11.311Z,14.53
2019-03-17T07:42:39.967Z,14.25
2019-03-17T07:45:10.107Z,14.75
2019-03-17T07:47:38.846Z,13.70
2019-03-17T07:50:14.808Z,13.90
2019-03-17T07:52:43.497Z,12.18
2019-03-17T07:55:12.148Z,11.15
2019-03-17T07:57:40.800Z,13.35
2019-03-17T08:00:14.760Z,12.68
2019-03-17T08:02:43.341Z,11.80
2019-03-17T08:05:12.001Z,11.75
2019-03-17T08:07:40.690Z,12.45
2019-03-17T08:10:14.146Z,12.63
2019-03-17T08:12:42.855Z,13.05
2019-03-17T08:15:14.932Z,13.13
2019-03-17T08:17:43.674Z,11.38
2019-03-17T08:20:12.929Z,11.68
2019-03-17T08:22:41.573Z,13.00
2019-03-17T08:25:11.526Z,10.90
2019-03-17T08:27:40.102Z,9.80
2019-03-17T08:30:14.303Z,7.95
2019-03-17T08:32:43.093Z,6.80
2019-03-17T08:35:12.916Z,7.22
2019-03-17T08:37:41.603Z,6.17
2019-03-17T08:40:12.934Z,7.65
2019-03-17T08:42:41.662Z,8.68
2019-03-17T08:45:14.325Z,8.50
2019-03-17T08:47:42.912Z,7.78
2019-03-17T08:50:13.244Z,7.83
2019-03-17T08:52:43.434Z,6.50
2019-03-17T08:55:13.284Z,7.85
2019-03-17T08:57:41.923Z,7.80
2019-03-17T09:00:13.191Z,9.75
2019-03-17T09:02:41.768Z,9.18
2019-03-17T09:05:10.519Z,9.48
2019-03-17T09:07:39.218Z,8.45
2019-03-17T09:10:10.766Z,8.20
2019-03-17T09:12:39.405Z,8.20
2019-03-17T09:15:08.172Z,8.20
2019-03-17T09:17:36.800Z,7.78
2019-03-17T09:20:07.904Z,6.95
2019-03-17T09:22:36.507Z,6.62
2019-03-17T09:25:06.750Z,6.70
2019-03-17T09:27:35.401Z,7.50
2019-03-17T09:30:05.415Z,6.62
2019-03-17T09:32:34.033Z,6.17
2019-03-17T09:35:02.676Z,4.62
2019-03-17T09:37:31.366Z,4.70
2019-03-17T09:39:59.937Z,5.08
2019-03-17T09:42:28.510Z,4.80
2019-03-17T09:44:57.194Z,4.17
2019-03-17T09:47:25.770Z,3.90
2019-03-17T09:49:54.350Z,3.17
2019-03-17T09:52:22.959Z,3.80
2019-03-17T09:54:51.592Z,3.90
2019-03-17T09:57:20.160Z,3.50
2019-03-17T09:59:48.817Z,2.75
2019-03-17T10:02:17.467Z,3.50
2019-03-17T10:04:46.114Z,4.25
2019-03-17T10:07:14.753Z,3.65
2019-03-17T10:09:43.398Z,3.37
2019-03-17T10:12:11.972Z,3.70
2019-03-17T10:14:40.590Z,3.37
2019-03-17T10:17:09.236Z,3.02
2019-03-17T10:19:37.887Z,2.33
2019-03-17T10:22:06.493Z,2.85
2019-03-17T10:24:35.084Z,2.70
2019-03-17T10:27:03.645Z,1.82
2019-03-17T10:29:32.353Z,2.00
2019-03-17T10:32:00.929Z,2.52
2019-03-17T10:34:29.588Z,1.90
2019-03-17T10:36:58.604Z,2.25
2019-03-17T10:39:27.226Z,1.72
2019-03-17T10:41:55.809Z,1.90
2019-03-17T10:44:24.418Z,1.92
2019-03-17T10:46:53.059Z,3.70
2019-03-17T10:49:21.653Z,2.67
2019-03-17T10:51:50.578Z,1.50
2019-03-17T10:54:19.274Z,2.83
2019-03-17T10:56:48.016Z,2.30
2019-03-17T10:59:16.642Z,2.10
2019-03-17T11:01:45.202Z,2.52
2019-03-17T11:04:13.880Z,2.30
2019-03-17T11:06:42.555Z,2.80
2019-03-17T11:09:11.242Z,2.33
2019-03-17T11:11:39.829Z,2.20
2019-03-17T11:14:08.507Z,2.30
2019-03-17T11:16:37.090Z,2.27
2019-03-17T11:19:05.752Z,2.20
2019-03-17T11:21:34.406Z,2.08
2019-03-17T11:24:03.058Z,2.25
2019-03-17T11:26:31.774Z,2.80
2019-03-17T11:29:00.345Z,2.10
2019-03-17T11:31:28.984Z,2.30
2019-03-17T11:33:57.682Z,2.77
2019-03-17T11:36:26.284Z,2.65
2019-03-17T11:38:54.876Z,2.10
2019-03-17T11:41:23.561Z,2.40
2019-03-17T11:43:52.216Z,2.20
2019-03-17T11:46:20.863Z,2.62
2019-03-17T11:48:49.564Z,1.90
2019-03-17T11:51:18.216Z,2.20
2019-03-17T11:53:46.868Z,2.12
2019-03-17T11:56:15.661Z,1.70
2019-03-17T11:58:44.200Z,2.20
2019-03-17T12:01:12.849Z,2.22
2019-03-17T12:03:41.531Z,1.80
2019-03-17T12:06:10.211Z,1.57
2019-03-17T12:08:38.996Z,1.98
2019-03-17T12:11:07.724Z,1.90
2019-03-17T12:13:36.554Z,1.72
2019-03-17T12:16:05.207Z,1.85
2019-03-17T12:18:33.831Z,1.90
2019-03-17T12:21:02.586Z,1.77
2019-03-17T12:23:31.227Z,1.85
2019-03-17T12:25:59.902Z,2.10
2019-03-17T12:28:28.624Z,2.87
2019-03-17T12:30:57.203Z,1.67
2019-03-17T12:33:25.777Z,1.95
2019-03-17T12:35:54.811Z,1.77
2019-03-17T12:38:23.449Z,2.12
2019-03-17T12:40:52.044Z,1.95
2019-03-17T12:43:20.717Z,1.72
2019-03-17T12:45:49.321Z,1.57
2019-03-17T12:48:17.920Z,1.90
2019-03-17T12:50:46.604Z,2.00
2019-03-17T12:53:15.264Z,2.40
2019-03-17T12:55:43.922Z,2.05
2019-03-17T12:58:14.743Z,1.60
2019-03-17T13:00:42.993Z,1.60
2019-03-17T13:03:11.528Z,1.87
2019-03-17T13:05:40.226Z,1.70
2019-03-17T13:08:08.884Z,1.65
2019-03-17T13:10:37.491Z,1.80
2019-03-17T13:13:06.209Z,1.57
2019-03-17T13:15:34.840Z,1.60
2019-03-17T13:18:03.486Z,2.45
2019-03-17T13:20:32.236Z,2.02
2019-03-17T13:23:00.876Z,2.20
2019-03-17T13:25:29.548Z,1.87
2019-03-17T13:27:58.276Z,2.45
2019-03-17T13:30:26.863Z,1.90
2019-03-17T13:32:55.514Z,1.80
2019-03-17T13:35:24.217Z,1.52
2019-03-17T13:37:52.943Z,1.17
2019-03-17T13:40:29.469Z,1.87
2019-03-17T13:42:52.401Z,2.15
2019-03-17T13:45:21.012Z,1.72
2019-03-17T13:47:49.652Z,1.87
2019-03-17T13:50:20.284Z,1.57
2019-03-17T13:52:49.001Z,1.40
2019-03-17T13:55:17.847Z,1.65
2019-03-17T13:58:04.205Z,1.47
2019-03-17T14:00:32.841Z,1.67
2019-03-17T14:03:01.486Z,1.72
2019-03-17T14:05:30.631Z,1.60
2019-03-17T14:07:59.273Z,1.60
2019-03-17T14:10:40.045Z,1.65
2019-03-17T14:12:58.463Z,1.85
2019-03-17T14:15:28.061Z,1.67
2019-03-17T14:17:56.713Z,1.87
2019-03-17T14:20:25.420Z,2.45
2019-03-17T14:22:54.055Z,1.95
2019-03-17T14:25:28.206Z,1.82
2019-03-17T14:27:56.890Z,1.75
2019-03-17T14:30:25.563Z,2.65
2019-03-17T14:32:54.287Z,2.10
2019-03-17T14:35:23.072Z,2.00
2019-03-17T14:37:52.745Z,1.75
2019-03-17T14:40:21.478Z,2.12
2019-03-17T14:42:51.185Z,1.70
2019-03-17T14:45:19.900Z,2.10
2019-03-17T14:47:48.657Z,2.17
2019-03-17T14:50:21.544Z,1.80
2019-03-17T14:52:50.210Z,1.62
2019-03-17T14:55:19.060Z,2.05
2019-03-17T14:57:47.809Z,2.12
2019-03-17T15:00:21.615Z,2.10
2019-03-17T15:02:50.371Z,1.72
2019-03-17T15:05:19.133Z,2.00
2019-03-17T15:07:49.241Z,1.87
2019-03-17T15:10:21.994Z,1.92
2019-03-17T15:12:50.723Z,2.00
2019-03-17T15:15:23.128Z,2.12
2019-03-17T15:17:51.879Z,2.20
2019-03-17T15:20:25.611Z,2.12
2019-03-17T15:22:54.248Z,2.20
2019-03-17T15:25:24.221Z,1.67
2019-03-17T15:27:52.902Z,2.50
2019-03-17T15:30:29.375Z,2.17
2019-03-17T15:32:58.190Z,2.17
2019-03-17T15:35:27.052Z,1.92
2019-03-17T15:37:55.837Z,2.10
2019-03-17T15:40:24.534Z,2.05
2019-03-17T15:42:53.193Z,1.85
2019-03-17T15:45:23.091Z,2.25
2019-03-17T15:47:51.944Z,2.55
2019-03-17T15:50:27.941Z,2.60
2019-03-17T15:52:56.628Z,3.60
2019-03-17T15:55:25.262Z,4.28
2019-03-17T15:57:55.519Z,3.83
2019-03-17T16:00:27.355Z,5.47
2019-03-17T16:02:55.991Z,5.47
2019-03-17T16:05:24.640Z,4.67
2019-03-17T16:07:53.448Z,4.83
2019-03-17T16:10:29.575Z,3.77
2019-03-17T16:12:58.255Z,3.20
2019-03-17T16:15:26.893Z,3.27
2019-03-17T16:17:55.717Z,4.97
2019-03-17T16:20:26.483Z,8.70
2019-03-17T16:22:55.131Z,9.98
2019-03-17T16:25:25.830Z,9.35
2019-03-17T16:27:54.962Z,10.08
2019-03-17T16:30:28.331Z,8.18
2019-03-17T16:32:56.974Z,6.58
2019-03-17T16:35:27.068Z,7.42
2019-03-17T16:37:55.729Z,9.45
2019-03-17T16:40:31.585Z,8.80
2019-03-17T16:43:01.271Z,10.35
2019-03-17T16:45:29.915Z,11.45
2019-03-17T16:47:58.988Z,9.15
2019-03-17T16:50:30.831Z,7.87
2019-03-17T16:52:59.726Z,8.18
2019-03-17T16:55:36.657Z,6.08
2019-03-17T16:58:08.945Z,5.33
2019-03-17T17:00:39.640Z,5.08
2019-03-17T17:03:08.291Z,6.80
2019-03-17T17:05:37.009Z,6.62
2019-03-17T17:08:05.660Z,6.00
2019-03-17T17:10:34.322Z,6.85
2019-03-17T17:13:03.209Z,4.95
2019-03-17T17:15:33.215Z,7.10
2019-03-17T17:18:01.865Z,7.55
2019-03-17T17:20:32.603Z,8.98
2019-03-17T17:23:06.719Z,8.15
2019-03-17T17:25:35.356Z,6.92
2019-03-17T17:28:04.654Z,6.87
2019-03-17T17:30:33.309Z,7.60
2019-03-17T17:33:02.019Z,6.47
2019-03-17T17:35:30.718Z,6.67
2019-03-17T17:37:59.370Z,5.78
2019-03-17T17:40:28.627Z,5.67
2019-03-17T17:42:58.527Z,4.90
2019-03-17T17:45:27.271Z,6.45
2019-03-17T17:47:55.915Z,5.08
2019-03-17T17:50:30.215Z,4.17
2019-03-17T17:52:59.707Z,4.53
2019-03-17T17:55:28.362Z,4.28
2019-03-17T17:57:59.457Z,4.58
2019-03-17T18:00:45.084Z,4.80
2019-03-17T18:03:13.675Z,3.75
2019-03-17T18:05:42.326Z,5.60
2019-03-17T18:08:11.007Z,4.47
2019-03-17T18:10:40.762Z,3.95
2019-03-17T18:13:09.398Z,3.50
2019-03-17T18:15:38.085Z,4.25
2019-03-17T18:18:06.725Z,4.40
2019-03-17T18:20:35.305Z,5.10
2019-03-17T18:23:04.028Z,4.80
2019-03-17T18:25:32.670Z,4.60
2019-03-17T18:28:03.003Z,4.13
2019-03-17T18:30:31.689Z,3.80
2019-03-17T18:33:00.368Z,4.10
2019-03-17T18:35:29.012Z,4.08
2019-03-17T18:37:57.668Z,4.60
2019-03-17T18:40:26.473Z,6.25
2019-03-17T18:42:55.116Z,4.20
2019-03-17T18:45:32.107Z,3.52
2019-03-17T18:48:00.762Z,3.40
2019-03-17T18:50:29.417Z,3.80
2019-03-17T18:52:58.161Z,4.25
2019-03-17T18:55:26.800Z,4.05
2019-03-17T18:57:55.490Z,4.35
2019-03-17T19:00:25.331Z,3.90
2019-03-17T19:02:53.984Z,4.35
2019-03-17T19:05:22.685Z,5.42
2019-03-17T19:07:51.316Z,3.95
2019-03-17T19:10:21.441Z,3.05
2019-03-17T19:12:50.110Z,3.60
2019-03-17T19:15:23.348Z,3.25
2019-03-17T19:17:55.323Z,3.65
2019-03-17T19:20:26.014Z,3.42
2019-03-17T19:22:54.637Z,3.25
2019-03-17T19:25:26.885Z,3.40
2019-03-17T19:27:55.548Z,3.30
2019-03-17T19:30:24.348Z,3.35
2019-03-17T19:32:52.935Z,3.15
2019-03-17T19:35:21.585Z,3.40
2019-03-17T19:37:50.266Z,3.33
2019-03-17T19:40:23.253Z,3.27
2019-03-17T19:42:59.343Z,3.42
2019-03-17T19:45:22.341Z,2.85
2019-03-17T19:47:50.983Z,3.05
2019-03-17T19:50:21.283Z,3.55
2019-03-17T19:52:50.092Z,3.60
2019-03-17T19:55:18.838Z,3.02
2019-03-17T19:57:47.493Z,3.20
2019-03-17T20:00:17.289Z,2.67
2019-03-17T20:02:47.730Z,3.92
2019-03-17T20:05:16.645Z,3.42
2019-03-17T20:07:45.275Z,3.30
2019-03-17T20:10:22.666Z,3.25
2019-03-17T20:12:51.411Z,3.12
2019-03-17T20:15:20.066Z,3.20
2019-03-17T20:17:48.640Z,2.50
2019-03-17T20:20:17.417Z,3.10
2019-03-17T20:22:46.141Z,3.47
2019-03-17T20:25:14.812Z,3.45
2019-03-17T20:27:43.719Z,3.50
2019-03-17T20:30:16.445Z,4.28
2019-03-17T20:32:45.134Z,16.32
2019-03-17T20:35:14.240Z,17.23
2019-03-17T20:37:42.889Z,15.65
2019-03-17T20:40:16.178Z,14.78
2019-03-17T20:42:46.309Z,16.48
2019-03-17T20:45:15.972Z,16.32
2019-03-17T20:47:44.696Z,18.95
2019-03-17T20:50:15.542Z,13.80
2019-03-17T20:52:44.194Z,11.55
2019-03-17T20:55:12.952Z,11.53
2019-03-17T20:57:42.090Z,14.28
2019-03-17T21:00:18.596Z,9.20
2019-03-17T21:02:47.184Z,8.60
2019-03-17T21:05:15.846Z,6.87
2019-03-17T21:07:44.482Z,6.75
2019-03-17T21:10:17.321Z,4.87
2019-03-17T21:12:45.980Z,4.20
2019-03-17T21:15:16.018Z,3.62
2019-03-17T21:17:44.703Z,3.90
2019-03-17T21:20:15.794Z,4.03
2019-03-17T21:22:44.447Z,5.53
2019-03-17T21:25:13.198Z,7.15
2019-03-17T21:27:41.715Z,11.15
2019-03-17T21:30:14.708Z,8.30
2019-03-17T21:32:43.348Z,6.97
2019-03-17T21:35:11.925Z,7.30
2019-03-17T21:37:40.617Z,7.55
2019-03-17T21:40:11.361Z,7.58
2019-03-17T21:42:40.011Z,8.43
2019-03-17T21:45:10.798Z,10.43
2019-03-17T21:47:39.370Z,11.50
2019-03-17T21:50:10.924Z,9.78
2019-03-17T21:52:39.610Z,9.58
2019-03-17T21:55:09.962Z,7.97
2019-03-17T21:57:38.538Z,6.45
2019-03-17T22:00:10.130Z,7.03
2019-03-17T22:02:38.770Z,6.10
2019-03-17T22:05:07.427Z,6.12
2019-03-17T22:07:48.214Z,6.08
2019-03-17T22:10:09.432Z,3.90
2019-03-17T22:12:38.076Z,4.80
2019-03-17T22:15:09.786Z,4.00
2019-03-17T22:17:38.421Z,4.22
2019-03-17T22:20:09.655Z,4.22
2019-03-17T22:22:38.331Z,3.90
2019-03-17T22:25:09.169Z,2.98
2019-03-17T22:27:37.817Z,3.12
2019-03-17T22:30:22.085Z,3.37
2019-03-17T22:32:50.773Z,2.90
2019-03-17T22:35:19.506Z,3.40
2019-03-17T22:37:48.104Z,3.08
2019-03-17T22:40:17.576Z,3.22
2019-03-17T22:42:46.217Z,2.55
2019-03-17T22:45:16.002Z,3.25
2019-03-17T22:47:44.700Z,5.78
2019-03-17T22:50:16.248Z,3.33
2019-03-17T22:52:44.933Z,4.40
2019-03-17T22:55:14.683Z,3.45
2019-03-17T22:57:43.421Z,9.48
2019-03-17T23:00:36.476Z,13.85
2019-03-17T23:03:05.770Z,6.30
2019-03-17T23:05:34.417Z,11.88
2019-03-17T23:08:03.071Z,12.43
2019-03-17T23:10:31.921Z,10.80
2019-03-17T23:13:00.503Z,5.80
2019-03-17T23:15:29.151Z,4.58
2019-03-17T23:17:57.835Z,7.70
2019-03-17T23:20:26.490Z,7.20
2019-03-17T23:22:55.151Z,6.22
2019-03-17T23:25:23.843Z,6.92
2019-03-17T23:27:52.548Z,3.42
2019-03-17T23:30:22.402Z,3.77
2019-03-17T23:32:52.414Z,2.42
2019-03-17T23:35:21.059Z,2.72
2019-03-17T23:37:49.983Z,2.77
2019-03-17T23:40:19.163Z,2.40
2019-03-17T23:42:47.806Z,2.67
2019-03-17T23:45:16.383Z,7.37
2019-03-17T23:47:44.965Z,9.35
2019-03-17T23:50:14.651Z,7.85
2019-03-17T23:52:43.495Z,8.70
2019-03-17T23:55:14.656Z,5.28
2019-03-17T23:57:43.381Z,4.20
